sensor_id;sensor_type;location;lat;lon;timestamp;P1;durP1;ratioP1;P2;durP2;ratioP2
71366;SDS011;60030;52.274;8.040;2023-04-24T00:01:06;0.60;;;0.60;;
71366;SDS011;60030;52.274;8.040;2023-04-24T00:03:34;0.80;;;0.80;;
71366;SDS011;60030;52.274;8.040;2023-04-24T00:06:02;0.70;;;0.70;;
71366;SDS011;60030;52.274;8.040;2023-04-24T00:08:30;0.80;;;0.80;;
71366;SDS011;60030;52.274;8.040;2023-04-24T00:10:57;1.00;;;0.90;;
71366;SDS011;60030;52.274;8.040;2023-04-24T00:13:26;1.40;;;1.13;;
71366;SDS011;60030;52.274;8.040;2023-04-24T00:15:53;0.80;;;0.80;;
71366;SDS011;60030;52.274;8.040;2023-04-24T00:18:21;1.27;;;0.97;;
71366;SDS011;60030;52.274;8.040;2023-04-24T00:20:48;1.30;;;1.20;;
71366;SDS011;60030;52.274;8.040;2023-04-24T00:23:15;1.10;;;1.00;;
71366;SDS011;60030;52.274;8.040;2023-04-24T00:25:42;1.13;;;1.10;;
71366;SDS011;60030;52.274;8.040;2023-04-24T00:28:09;1.57;;;1.20;;
71366;SDS011;60030;52.274;8.040;2023-04-24T00:30:37;1.50;;;1.17;;
71366;SDS011;60030;52.274;8.040;2023-04-24T00:33:04;1.50;;;1.13;;
71366;SDS011;60030;52.274;8.040;2023-04-24T00:35:32;1.40;;;1.30;;
71366;SDS011;60030;52.274;8.040;2023-04-24T00:37:59;1.30;;;1.10;;
71366;SDS011;60030;52.274;8.040;2023-04-24T00:40:26;2.67;;;1.50;;
71366;SDS011;60030;52.274;8.040;2023-04-24T00:42:54;1.70;;;1.13;;
71366;SDS011;60030;52.274;8.040;2023-04-24T00:45:24;1.20;;;1.10;;
71366;SDS011;60030;52.274;8.040;2023-04-24T00:47:53;2.43;;;1.30;;
71366;SDS011;60030;52.274;8.040;2023-04-24T00:50:20;0.90;;;0.90;;
71366;SDS011;60030;52.274;8.040;2023-04-24T00:52:47;1.10;;;0.90;;
71366;SDS011;60030;52.274;8.040;2023-04-24T00:55:15;1.43;;;1.03;;
71366;SDS011;60030;52.274;8.040;2023-04-24T00:57:42;1.30;;;1.10;;
71366;SDS011;60030;52.274;8.040;2023-04-24T01:00:10;1.20;;;1.10;;
71366;SDS011;60030;52.274;8.040;2023-04-24T01:02:39;1.60;;;1.13;;
71366;SDS011;60030;52.274;8.040;2023-04-24T01:05:10;1.10;;;1.00;;
71366;SDS011;60030;52.274;8.040;2023-04-24T01:07:38;1.73;;;1.17;;
71366;SDS011;60030;52.274;8.040;2023-04-24T01:10:09;1.30;;;1.10;;
71366;SDS011;60030;52.274;8.040;2023-04-24T01:12:36;1.10;;;1.00;;
71366;SDS011;60030;52.274;8.040;2023-04-24T01:15:04;1.10;;;1.00;;
71366;SDS011;60030;52.274;8.040;2023-04-24T01:17:34;1.30;;;1.07;;
71366;SDS011;60030;52.274;8.040;2023-04-24T01:20:01;1.53;;;1.00;;
71366;SDS011;60030;52.274;8.040;2023-04-24T01:22:32;1.70;;;0.80;;
71366;SDS011;60030;52.274;8.040;2023-04-24T01:25:00;1.00;;;0.90;;
71366;SDS011;60030;52.274;8.040;2023-04-24T01:27:29;1.83;;;1.00;;
71366;SDS011;60030;52.274;8.040;2023-04-24T01:29:56;2.73;;;1.10;;
71366;SDS011;60030;52.274;8.040;2023-04-24T01:32:24;1.60;;;1.20;;
71366;SDS011;60030;52.274;8.040;2023-04-24T01:34:51;1.10;;;0.90;;
71366;SDS011;60030;52.274;8.040;2023-04-24T01:37:18;1.03;;;0.93;;
71366;SDS011;60030;52.274;8.040;2023-04-24T01:39:47;1.67;;;0.70;;
71366;SDS011;60030;52.274;8.040;2023-04-24T01:42:14;1.43;;;0.80;;
71366;SDS011;60030;52.274;8.040;2023-04-24T01:44:41;1.40;;;0.90;;
71366;SDS011;60030;52.274;8.040;2023-04-24T01:47:08;1.50;;;1.00;;
71366;SDS011;60030;52.274;8.040;2023-04-24T01:49:35;0.83;;;0.70;;
71366;SDS011;60030;52.274;8.040;2023-04-24T01:52:04;1.13;;;0.80;;
71366;SDS011;60030;52.274;8.040;2023-04-24T01:54:31;1.00;;;0.70;;
71366;SDS011;60030;52.274;8.040;2023-04-24T01:57:00;0.87;;;0.80;;
71366;SDS011;60030;52.274;8.040;2023-04-24T01:59:28;1.50;;;0.90;;
71366;SDS011;60030;52.274;8.040;2023-04-24T02:01:56;1.30;;;0.80;;
71366;SDS011;60030;52.274;8.040;2023-04-24T02:04:23;2.70;;;0.80;;
71366;SDS011;60030;52.274;8.040;2023-04-24T02:06:51;1.27;;;0.80;;
71366;SDS011;60030;52.274;8.040;2023-04-24T02:09:18;1.70;;;0.90;;
71366;SDS011;60030;52.274;8.040;2023-04-24T02:11:45;0.70;;;0.70;;
71366;SDS011;60030;52.274;8.040;2023-04-24T02:14:13;0.90;;;0.83;;
71366;SDS011;60030;52.274;8.040;2023-04-24T02:16:40;1.50;;;0.90;;
71366;SDS011;60030;52.274;8.040;2023-04-24T02:19:07;1.33;;;0.70;;
71366;SDS011;60030;52.274;8.040;2023-04-24T02:21:34;1.80;;;0.90;;
71366;SDS011;60030;52.274;8.040;2023-04-24T02:24:01;1.23;;;1.00;;
71366;SDS011;60030;52.274;8.040;2023-04-24T02:26:29;2.60;;;0.83;;
71366;SDS011;60030;52.274;8.040;2023-04-24T02:28:57;0.70;;;0.60;;
71366;SDS011;60030;52.274;8.040;2023-04-24T02:31:25;2.70;;;1.07;;
71366;SDS011;60030;52.274;8.040;2023-04-24T02:33:52;3.57;;;1.20;;
71366;SDS011;60030;52.274;8.040;2023-04-24T02:36:19;2.77;;;1.10;;
71366;SDS011;60030;52.274;8.040;2023-04-24T02:38:47;1.90;;;1.03;;
71366;SDS011;60030;52.274;8.040;2023-04-24T02:41:14;1.73;;;1.10;;
71366;SDS011;60030;52.274;8.040;2023-04-24T02:43:41;1.83;;;1.10;;
71366;SDS011;60030;52.274;8.040;2023-04-24T02:46:09;1.20;;;1.10;;
71366;SDS011;60030;52.274;8.040;2023-04-24T02:48:37;1.10;;;1.00;;
71366;SDS011;60030;52.274;8.040;2023-04-24T02:51:05;2.57;;;1.30;;
71366;SDS011;60030;52.274;8.040;2023-04-24T02:53:32;2.67;;;1.20;;
71366;SDS011;60030;52.274;8.040;2023-04-24T02:55:59;1.17;;;1.07;;
71366;SDS011;60030;52.274;8.040;2023-04-24T02:58:27;3.70;;;1.20;;
71366;SDS011;60030;52.274;8.040;2023-04-24T03:00:54;2.03;;;1.20;;
71366;SDS011;60030;52.274;8.040;2023-04-24T03:03:21;1.27;;;1.17;;
71366;SDS011;60030;52.274;8.040;2023-04-24T03:05:50;1.87;;;1.40;;
71366;SDS011;60030;52.274;8.040;2023-04-24T03:08:17;2.30;;;2.13;;
71366;SDS011;60030;52.274;8.040;2023-04-24T03:10:44;1.80;;;1.70;;
71366;SDS011;60030;52.274;8.040;2023-04-24T03:13:14;2.10;;;1.63;;
71366;SDS011;60030;52.274;8.040;2023-04-24T03:15:42;1.90;;;1.70;;
71366;SDS011;60030;52.274;8.040;2023-04-24T03:18:10;2.00;;;1.80;;
71366;SDS011;60030;52.274;8.040;2023-04-24T03:20:37;3.87;;;1.90;;
71366;SDS011;60030;52.274;8.040;2023-04-24T03:23:05;3.47;;;2.00;;
71366;SDS011;60030;52.274;8.040;2023-04-24T03:25:33;2.67;;;2.10;;
71366;SDS011;60030;52.274;8.040;2023-04-24T03:28:01;1.80;;;1.70;;
71366;SDS011;60030;52.274;8.040;2023-04-24T03:30:37;2.03;;;1.43;;
71366;SDS011;60030;52.274;8.040;2023-04-24T03:33:06;1.87;;;1.40;;
71366;SDS011;60030;52.274;8.040;2023-04-24T03:35:37;2.47;;;1.60;;
71366;SDS011;60030;52.274;8.040;2023-04-24T03:38:09;2.03;;;1.37;;
71366;SDS011;60030;52.274;8.040;2023-04-24T03:41:00;2.13;;;1.80;;
71366;SDS011;60030;52.274;8.040;2023-04-24T03:43:37;2.13;;;1.80;;
71366;SDS011;60030;52.274;8.040;2023-04-24T03:46:05;2.40;;;2.20;;
71366;SDS011;60030;52.274;8.040;2023-04-24T03:48:38;2.80;;;2.13;;
71366;SDS011;60030;52.274;8.040;2023-04-24T03:51:06;2.83;;;2.33;;
71366;SDS011;60030;52.274;8.040;2023-04-24T03:53:36;2.53;;;2.33;;
71366;SDS011;60030;52.274;8.040;2023-04-24T03:56:04;2.93;;;2.33;;
71366;SDS011;60030;52.274;8.040;2023-04-24T03:58:32;3.13;;;2.40;;
71366;SDS011;60030;52.274;8.040;2023-04-24T04:00:59;3.00;;;2.70;;
71366;SDS011;60030;52.274;8.040;2023-04-24T04:03:46;4.37;;;3.90;;
71366;SDS011;60030;52.274;8.040;2023-04-24T04:06:16;5.10;;;3.97;;
71366;SDS011;60030;52.274;8.040;2023-04-24T04:08:46;5.67;;;4.57;;
71366;SDS011;60030;52.274;8.040;2023-04-24T04:11:13;4.73;;;4.20;;
71366;SDS011;60030;52.274;8.040;2023-04-24T04:13:40;5.13;;;4.63;;
71366;SDS011;60030;52.274;8.040;2023-04-24T04:16:08;6.10;;;4.70;;
71366;SDS011;60030;52.274;8.040;2023-04-24T04:18:35;7.13;;;5.30;;
71366;SDS011;60030;52.274;8.040;2023-04-24T04:21:04;7.17;;;5.93;;
71366;SDS011;60030;52.274;8.040;2023-04-24T04:23:31;7.40;;;5.57;;
71366;SDS011;60030;52.274;8.040;2023-04-24T04:26:09;9.47;;;6.20;;
71366;SDS011;60030;52.274;8.040;2023-04-24T04:28:53;7.60;;;5.60;;
71366;SDS011;60030;52.274;8.040;2023-04-24T04:31:20;8.27;;;6.40;;
71366;SDS011;60030;52.274;8.040;2023-04-24T04:33:48;7.97;;;6.20;;
71366;SDS011;60030;52.274;8.040;2023-04-24T04:36:15;7.33;;;6.10;;
71366;SDS011;60030;52.274;8.040;2023-04-24T04:38:48;9.57;;;6.27;;
71366;SDS011;60030;52.274;8.040;2023-04-24T04:41:35;8.90;;;6.73;;
71366;SDS011;60030;52.274;8.040;2023-04-24T04:44:03;8.70;;;6.67;;
71366;SDS011;60030;52.274;8.040;2023-04-24T04:46:31;6.80;;;6.10;;
71366;SDS011;60030;52.274;8.040;2023-04-24T04:49:07;7.30;;;6.30;;
71366;SDS011;60030;52.274;8.040;2023-04-24T04:51:36;9.57;;;6.73;;
71366;SDS011;60030;52.274;8.040;2023-04-24T04:54:04;7.97;;;6.67;;
71366;SDS011;60030;52.274;8.040;2023-04-24T04:56:31;9.53;;;6.77;;
71366;SDS011;60030;52.274;8.040;2023-04-24T04:59:01;9.50;;;7.47;;
71366;SDS011;60030;52.274;8.040;2023-04-24T05:01:28;8.83;;;7.10;;
71366;SDS011;60030;52.274;8.040;2023-04-24T05:03:55;12.53;;;8.50;;
71366;SDS011;60030;52.274;8.040;2023-04-24T05:06:22;9.23;;;7.50;;
71366;SDS011;60030;52.274;8.040;2023-04-24T05:08:51;10.57;;;8.00;;
71366;SDS011;60030;52.274;8.040;2023-04-24T05:11:29;8.80;;;7.90;;
71366;SDS011;60030;52.274;8.040;2023-04-24T05:14:00;13.03;;;7.93;;
71366;SDS011;60030;52.274;8.040;2023-04-24T05:16:34;10.07;;;7.90;;
71366;SDS011;60030;52.274;8.040;2023-04-24T05:19:03;11.73;;;7.90;;
71366;SDS011;60030;52.274;8.040;2023-04-24T05:21:35;12.47;;;7.97;;
71366;SDS011;60030;52.274;8.040;2023-04-24T05:24:03;13.03;;;7.87;;
71366;SDS011;60030;52.274;8.040;2023-04-24T05:26:53;11.73;;;8.03;;
71366;SDS011;60030;52.274;8.040;2023-04-24T05:29:26;13.03;;;8.47;;
71366;SDS011;60030;52.274;8.040;2023-04-24T05:31:53;10.77;;;8.83;;
71366;SDS011;60030;52.274;8.040;2023-04-24T05:34:21;14.30;;;9.50;;
71366;SDS011;60030;52.274;8.040;2023-04-24T05:36:52;10.47;;;8.10;;
71366;SDS011;60030;52.274;8.040;2023-04-24T05:39:19;14.77;;;9.23;;
71366;SDS011;60030;52.274;8.040;2023-04-24T05:41:46;13.30;;;9.17;;
71366;SDS011;60030;52.274;8.040;2023-04-24T05:44:13;14.33;;;9.60;;
71366;SDS011;60030;52.274;8.040;2023-04-24T05:46:42;12.43;;;9.10;;
71366;SDS011;60030;52.274;8.040;2023-04-24T05:49:10;12.20;;;10.23;;
71366;SDS011;60030;52.274;8.040;2023-04-24T05:51:37;13.97;;;9.60;;
71366;SDS011;60030;52.274;8.040;2023-04-24T05:54:05;15.70;;;10.73;;
71366;SDS011;60030;52.274;8.040;2023-04-24T05:56:32;15.50;;;10.60;;
71366;SDS011;60030;52.274;8.040;2023-04-24T05:59:02;13.50;;;9.90;;
71366;SDS011;60030;52.274;8.040;2023-04-24T06:01:29;18.10;;;11.67;;
71366;SDS011;60030;52.274;8.040;2023-04-24T06:04:07;15.07;;;11.23;;
71366;SDS011;60030;52.274;8.040;2023-04-24T06:06:34;15.30;;;11.57;;
71366;SDS011;60030;52.274;8.040;2023-04-24T06:09:02;15.50;;;11.97;;
71366;SDS011;60030;52.274;8.040;2023-04-24T06:11:30;17.50;;;11.93;;
71366;SDS011;60030;52.274;8.040;2023-04-24T06:13:58;16.03;;;11.73;;
71366;SDS011;60030;52.274;8.040;2023-04-24T06:16:37;17.43;;;11.97;;
71366;SDS011;60030;52.274;8.040;2023-04-24T06:19:15;17.67;;;12.17;;
71366;SDS011;60030;52.274;8.040;2023-04-24T06:21:42;19.90;;;12.57;;
71366;SDS011;60030;52.274;8.040;2023-04-24T06:24:09;15.30;;;10.63;;
71366;SDS011;60030;52.274;8.040;2023-04-24T06:26:37;17.33;;;11.90;;
71366;SDS011;60030;52.274;8.040;2023-04-24T06:29:06;19.47;;;12.07;;
71366;SDS011;60030;52.274;8.040;2023-04-24T06:31:35;17.70;;;11.73;;
71366;SDS011;60030;52.274;8.040;2023-04-24T06:34:02;19.53;;;12.73;;
71366;SDS011;60030;52.274;8.040;2023-04-24T06:36:30;17.70;;;12.70;;
71366;SDS011;60030;52.274;8.040;2023-04-24T06:38:59;16.10;;;11.90;;
71366;SDS011;60030;52.274;8.040;2023-04-24T06:41:26;15.50;;;11.30;;
71366;SDS011;60030;52.274;8.040;2023-04-24T06:43:54;14.87;;;12.10;;
71366;SDS011;60030;52.274;8.040;2023-04-24T06:46:21;15.10;;;11.70;;
71366;SDS011;60030;52.274;8.040;2023-04-24T06:48:51;18.13;;;11.87;;
71366;SDS011;60030;52.274;8.040;2023-04-24T06:51:21;13.43;;;10.30;;
71366;SDS011;60030;52.274;8.040;2023-04-24T06:53:50;19.40;;;12.23;;
71366;SDS011;60030;52.274;8.040;2023-04-24T06:56:18;16.33;;;11.43;;
71366;SDS011;60030;52.274;8.040;2023-04-24T06:58:45;16.17;;;11.90;;
71366;SDS011;60030;52.274;8.040;2023-04-24T07:01:12;17.13;;;10.73;;
71366;SDS011;60030;52.274;8.040;2023-04-24T07:03:40;15.40;;;10.97;;
71366;SDS011;60030;52.274;8.040;2023-04-24T07:06:07;14.87;;;10.83;;
71366;SDS011;60030;52.274;8.040;2023-04-24T07:08:34;15.57;;;10.83;;
71366;SDS011;60030;52.274;8.040;2023-04-24T07:11:03;13.67;;;10.87;;
71366;SDS011;60030;52.274;8.040;2023-04-24T07:13:30;14.03;;;10.33;;
71366;SDS011;60030;52.274;8.040;2023-04-24T07:15:58;15.70;;;10.67;;
71366;SDS011;60030;52.274;8.040;2023-04-24T07:18:25;16.73;;;10.93;;
71366;SDS011;60030;52.274;8.040;2023-04-24T07:20:52;14.57;;;9.80;;
71366;SDS011;60030;52.274;8.040;2023-04-24T07:23:19;13.17;;;9.77;;
71366;SDS011;60030;52.274;8.040;2023-04-24T07:25:46;15.93;;;10.13;;
71366;SDS011;60030;52.274;8.040;2023-04-24T07:28:15;16.97;;;10.60;;
71366;SDS011;60030;52.274;8.040;2023-04-24T07:30:43;14.13;;;11.10;;
71366;SDS011;60030;52.274;8.040;2023-04-24T07:33:10;13.00;;;9.97;;
71366;SDS011;60030;52.274;8.040;2023-04-24T07:35:38;13.63;;;9.83;;
71366;SDS011;60030;52.274;8.040;2023-04-24T07:38:05;14.20;;;9.97;;
71366;SDS011;60030;52.274;8.040;2023-04-24T07:40:32;12.43;;;8.83;;
71366;SDS011;60030;52.274;8.040;2023-04-24T07:42:59;12.57;;;9.33;;
71366;SDS011;60030;52.274;8.040;2023-04-24T07:45:28;12.00;;;8.60;;
71366;SDS011;60030;52.274;8.040;2023-04-24T07:47:56;12.83;;;10.23;;
71366;SDS011;60030;52.274;8.040;2023-04-24T07:50:23;12.47;;;9.40;;
71366;SDS011;60030;52.274;8.040;2023-04-24T07:52:50;13.30;;;9.47;;
71366;SDS011;60030;52.274;8.040;2023-04-24T07:55:17;12.33;;;9.30;;
71366;SDS011;60030;52.274;8.040;2023-04-24T07:57:45;10.70;;;9.60;;
71366;SDS011;60030;52.274;8.040;2023-04-24T08:00:12;11.80;;;9.33;;
71366;SDS011;60030;52.274;8.040;2023-04-24T08:02:41;12.50;;;9.10;;
71366;SDS011;60030;52.274;8.040;2023-04-24T08:05:08;9.63;;;8.63;;
71366;SDS011;60030;52.274;8.040;2023-04-24T08:07:35;11.83;;;8.57;;
71366;SDS011;60030;52.274;8.040;2023-04-24T08:10:03;12.37;;;9.23;;
71366;SDS011;60030;52.274;8.040;2023-04-24T08:12:31;10.40;;;8.13;;
71366;SDS011;60030;52.274;8.040;2023-04-24T08:14:58;10.93;;;8.47;;
71366;SDS011;60030;52.274;8.040;2023-04-24T08:17:25;9.37;;;8.20;;
71366;SDS011;60030;52.274;8.040;2023-04-24T08:19:53;10.63;;;8.63;;
71366;SDS011;60030;52.274;8.040;2023-04-24T08:22:26;9.43;;;8.43;;
71366;SDS011;60030;52.274;8.040;2023-04-24T08:24:53;12.27;;;8.50;;
71366;SDS011;60030;52.274;8.040;2023-04-24T08:27:21;10.47;;;8.57;;
71366;SDS011;60030;52.274;8.040;2023-04-24T08:29:48;9.27;;;7.73;;
71366;SDS011;60030;52.274;8.040;2023-04-24T08:32:15;10.33;;;8.60;;
71366;SDS011;60030;52.274;8.040;2023-04-24T08:34:43;8.83;;;7.93;;
71366;SDS011;60030;52.274;8.040;2023-04-24T08:37:11;9.07;;;7.87;;
71366;SDS011;60030;52.274;8.040;2023-04-24T08:39:39;8.20;;;7.27;;
71366;SDS011;60030;52.274;8.040;2023-04-24T08:42:06;7.50;;;6.80;;
71366;SDS011;60030;52.274;8.040;2023-04-24T08:44:33;8.80;;;7.13;;
71366;SDS011;60030;52.274;8.040;2023-04-24T08:47:01;7.47;;;6.70;;
71366;SDS011;60030;52.274;8.040;2023-04-24T08:49:29;7.43;;;6.70;;
71366;SDS011;60030;52.274;8.040;2023-04-24T08:51:56;6.80;;;6.10;;
71366;SDS011;60030;52.274;8.040;2023-04-24T08:54:26;7.40;;;5.67;;
71366;SDS011;60030;52.274;8.040;2023-04-24T08:56:53;8.27;;;6.03;;
71366;SDS011;60030;52.274;8.040;2023-04-24T08:59:27;7.17;;;6.40;;
71366;SDS011;60030;52.274;8.040;2023-04-24T09:01:55;8.03;;;5.73;;
71366;SDS011;60030;52.274;8.040;2023-04-24T09:04:23;6.50;;;5.90;;
71366;SDS011;60030;52.274;8.040;2023-04-24T09:06:52;7.30;;;5.87;;
71366;SDS011;60030;52.274;8.040;2023-04-24T09:09:22;6.83;;;5.10;;
71366;SDS011;60030;52.274;8.040;2023-04-24T09:11:51;6.07;;;5.37;;
71366;SDS011;60030;52.274;8.040;2023-04-24T09:14:21;6.27;;;5.20;;
71366;SDS011;60030;52.274;8.040;2023-04-24T09:16:49;5.30;;;4.80;;
71366;SDS011;60030;52.274;8.040;2023-04-24T09:19:16;7.43;;;5.40;;
71366;SDS011;60030;52.274;8.040;2023-04-24T09:21:45;6.33;;;5.73;;
71366;SDS011;60030;52.274;8.040;2023-04-24T09:24:15;7.53;;;5.70;;
71366;SDS011;60030;52.274;8.040;2023-04-24T09:26:43;5.97;;;5.30;;
71366;SDS011;60030;52.274;8.040;2023-04-24T09:29:15;5.60;;;5.10;;
71366;SDS011;60030;52.274;8.040;2023-04-24T09:31:42;5.27;;;4.77;;
71366;SDS011;60030;52.274;8.040;2023-04-24T09:34:11;6.10;;;5.50;;
71366;SDS011;60030;52.274;8.040;2023-04-24T09:36:39;6.17;;;5.33;;
71366;SDS011;60030;52.274;8.040;2023-04-24T09:39:10;5.57;;;5.00;;
71366;SDS011;60030;52.274;8.040;2023-04-24T09:41:43;5.83;;;5.27;;
71366;SDS011;60030;52.274;8.040;2023-04-24T09:44:11;5.67;;;5.17;;
71366;SDS011;60030;52.274;8.040;2023-04-24T09:46:42;5.80;;;5.30;;
71366;SDS011;60030;52.274;8.040;2023-04-24T09:49:12;5.70;;;5.20;;
71366;SDS011;60030;52.274;8.040;2023-04-24T09:51:40;6.03;;;5.43;;
71366;SDS011;60030;52.274;8.040;2023-04-24T09:54:13;5.80;;;5.20;;
71366;SDS011;60030;52.274;8.040;2023-04-24T09:56:42;5.60;;;5.07;;
71366;SDS011;60030;52.274;8.040;2023-04-24T09:59:11;6.73;;;5.23;;
71366;SDS011;60030;52.274;8.040;2023-04-24T10:01:39;5.90;;;5.07;;
71366;SDS011;60030;52.274;8.040;2023-04-24T10:04:17;5.87;;;5.37;;
71366;SDS011;60030;52.274;8.040;2023-04-24T10:06:45;5.80;;;4.60;;
71366;SDS011;60030;52.274;8.040;2023-04-24T10:09:14;4.93;;;4.43;;
71366;SDS011;60030;52.274;8.040;2023-04-24T10:11:41;6.83;;;4.73;;
71366;SDS011;60030;52.274;8.040;2023-04-24T10:14:11;5.63;;;4.53;;
71366;SDS011;60030;52.274;8.040;2023-04-24T10:16:39;6.10;;;4.40;;
71366;SDS011;60030;52.274;8.040;2023-04-24T10:19:07;5.67;;;4.47;;
71366;SDS011;60030;52.274;8.040;2023-04-24T10:21:35;4.97;;;3.57;;
71366;SDS011;60030;52.274;8.040;2023-04-24T10:24:07;4.80;;;4.30;;
71366;SDS011;60030;52.274;8.040;2023-04-24T10:26:35;3.27;;;2.93;;
71366;SDS011;60030;52.274;8.040;2023-04-24T10:29:03;4.30;;;3.20;;
71366;SDS011;60030;52.274;8.040;2023-04-24T10:31:35;2.80;;;2.57;;
71366;SDS011;60030;52.274;8.040;2023-04-24T10:34:03;3.53;;;2.73;;
71366;SDS011;60030;52.274;8.040;2023-04-24T10:36:32;2.30;;;2.10;;
71366;SDS011;60030;52.274;8.040;2023-04-24T10:39:03;3.07;;;1.87;;
71366;SDS011;60030;52.274;8.040;2023-04-24T10:41:33;2.97;;;1.60;;
71366;SDS011;60030;52.274;8.040;2023-04-24T10:44:06;2.13;;;1.77;;
71366;SDS011;60030;52.274;8.040;2023-04-24T10:46:35;3.00;;;2.37;;
71366;SDS011;60030;52.274;8.040;2023-04-24T10:49:03;2.47;;;1.70;;
71366;SDS011;60030;52.274;8.040;2023-04-24T10:51:44;2.07;;;1.73;;
71366;SDS011;60030;52.274;8.040;2023-04-24T10:54:23;1.50;;;1.37;;
71366;SDS011;60030;52.274;8.040;2023-04-24T10:56:51;2.00;;;1.40;;
71366;SDS011;60030;52.274;8.040;2023-04-24T10:59:25;4.13;;;1.30;;
71366;SDS011;60030;52.274;8.040;2023-04-24T11:01:53;1.77;;;1.30;;
71366;SDS011;60030;52.274;8.040;2023-04-24T11:04:31;2.07;;;1.20;;
71366;SDS011;60030;52.274;8.040;2023-04-24T11:07:00;3.37;;;1.13;;
71366;SDS011;60030;52.274;8.040;2023-04-24T11:09:31;1.17;;;0.90;;
71366;SDS011;60030;52.274;8.040;2023-04-24T11:12:03;2.00;;;0.80;;
71366;SDS011;60030;52.274;8.040;2023-04-24T11:17:30;0.60;;;0.60;;
71366;SDS011;60030;52.274;8.040;2023-04-24T11:20:02;2.40;;;0.70;;
71366;SDS011;60030;52.274;8.040;2023-04-24T11:22:32;0.80;;;0.60;;
71366;SDS011;60030;52.274;8.040;2023-04-24T11:25:02;1.27;;;0.67;;
71366;SDS011;60030;52.274;8.040;2023-04-24T11:27:31;1.77;;;0.80;;
71366;SDS011;60030;52.274;8.040;2023-04-24T11:30:06;1.67;;;0.67;;
71366;SDS011;60030;52.274;8.040;2023-04-24T11:32:34;1.73;;;0.80;;
71366;SDS011;60030;52.274;8.040;2023-04-24T11:35:03;4.93;;;2.97;;
71366;SDS011;60030;52.274;8.040;2023-04-24T11:37:36;10.93;;;5.43;;
71366;SDS011;60030;52.274;8.040;2023-04-24T11:40:06;2.60;;;1.90;;
71366;SDS011;60030;52.274;8.040;2023-04-24T11:42:34;4.00;;;2.50;;
71366;SDS011;60030;52.274;8.040;2023-04-24T11:45:06;3.23;;;2.27;;
71366;SDS011;60030;52.274;8.040;2023-04-24T11:47:34;6.27;;;3.17;;
71366;SDS011;60030;52.274;8.040;2023-04-24T11:50:02;5.00;;;4.00;;
71366;SDS011;60030;52.274;8.040;2023-04-24T11:52:31;6.90;;;4.37;;
71366;SDS011;60030;52.274;8.040;2023-04-24T11:54:59;6.60;;;4.07;;
71366;SDS011;60030;52.274;8.040;2023-04-24T11:57:28;5.73;;;3.80;;
71366;SDS011;60030;52.274;8.040;2023-04-24T11:59:58;4.93;;;3.90;;
71366;SDS011;60030;52.274;8.040;2023-04-24T12:02:26;5.53;;;4.00;;
71366;SDS011;60030;52.274;8.040;2023-04-24T12:04:54;6.27;;;3.67;;
71366;SDS011;60030;52.274;8.040;2023-04-24T12:07:21;7.03;;;4.30;;
71366;SDS011;60030;52.274;8.040;2023-04-24T12:09:54;4.73;;;3.60;;
71366;SDS011;60030;52.274;8.040;2023-04-24T12:12:24;7.37;;;6.00;;
71366;SDS011;60030;52.274;8.040;2023-04-24T12:14:54;5.07;;;4.03;;
71366;SDS011;60030;52.274;8.040;2023-04-24T12:17:26;6.67;;;4.27;;
71366;SDS011;60030;52.274;8.040;2023-04-24T12:19:57;6.37;;;4.30;;
71366;SDS011;60030;52.274;8.040;2023-04-24T12:22:25;5.50;;;4.50;;
71366;SDS011;60030;52.274;8.040;2023-04-24T12:24:59;6.57;;;3.80;;
71366;SDS011;60030;52.274;8.040;2023-04-24T12:27:29;5.30;;;3.40;;
71366;SDS011;60030;52.274;8.040;2023-04-24T12:30:00;8.40;;;3.00;;
71366;SDS011;60030;52.274;8.040;2023-04-24T12:32:29;3.93;;;2.70;;
71366;SDS011;60030;52.274;8.040;2023-04-24T12:34:56;3.53;;;2.50;;
71366;SDS011;60030;52.274;8.040;2023-04-24T12:37:25;10.00;;;3.30;;
71366;SDS011;60030;52.274;8.040;2023-04-24T12:40:03;7.20;;;2.57;;
71366;SDS011;60030;52.274;8.040;2023-04-24T12:42:33;4.70;;;2.50;;
71366;SDS011;60030;52.274;8.040;2023-04-24T12:45:03;7.17;;;3.00;;
71366;SDS011;60030;52.274;8.040;2023-04-24T12:47:31;5.70;;;3.00;;
71366;SDS011;60030;52.274;8.040;2023-04-24T12:50:02;7.77;;;2.47;;
71366;SDS011;60030;52.274;8.040;2023-04-24T12:52:29;9.07;;;2.87;;
71366;SDS011;60030;52.274;8.040;2023-04-24T12:54:57;7.00;;;3.10;;
71366;SDS011;60030;52.274;8.040;2023-04-24T12:57:27;6.87;;;2.60;;
71366;SDS011;60030;52.274;8.040;2023-04-24T12:59:57;7.67;;;3.10;;
71366;SDS011;60030;52.274;8.040;2023-04-24T13:02:26;4.20;;;2.37;;
71366;SDS011;60030;52.274;8.040;2023-04-24T13:04:56;8.00;;;3.07;;
71366;SDS011;60030;52.274;8.040;2023-04-24T13:07:23;5.93;;;2.63;;
71366;SDS011;60030;52.274;8.040;2023-04-24T13:09:54;5.60;;;2.53;;
71366;SDS011;60030;52.274;8.040;2023-04-24T13:12:23;7.07;;;2.73;;
71366;SDS011;60030;52.274;8.040;2023-04-24T13:14:51;8.23;;;3.10;;
71366;SDS011;60030;52.274;8.040;2023-04-24T13:17:18;5.87;;;2.67;;
71366;SDS011;60030;52.274;8.040;2023-04-24T13:19:49;5.53;;;3.00;;
71366;SDS011;60030;52.274;8.040;2023-04-24T13:22:17;9.90;;;3.20;;
71366;SDS011;60030;52.274;8.040;2023-04-24T13:24:45;7.53;;;3.30;;
71366;SDS011;60030;52.274;8.040;2023-04-24T13:27:14;6.87;;;3.60;;
71366;SDS011;60030;52.274;8.040;2023-04-24T13:29:41;6.03;;;3.10;;
71366;SDS011;60030;52.274;8.040;2023-04-24T13:32:08;6.30;;;3.17;;
71366;SDS011;60030;52.274;8.040;2023-04-24T13:34:35;6.13;;;3.17;;
71366;SDS011;60030;52.274;8.040;2023-04-24T13:37:04;4.60;;;2.80;;
71366;SDS011;60030;52.274;8.040;2023-04-24T13:39:33;6.20;;;3.33;;
71366;SDS011;60030;52.274;8.040;2023-04-24T13:42:00;9.60;;;3.57;;
71366;SDS011;60030;52.274;8.040;2023-04-24T13:44:28;6.57;;;3.17;;
71366;SDS011;60030;52.274;8.040;2023-04-24T13:46:55;6.67;;;2.90;;
71366;SDS011;60030;52.274;8.040;2023-04-24T13:49:23;5.50;;;3.07;;
71366;SDS011;60030;52.274;8.040;2023-04-24T13:51:51;8.27;;;2.80;;
71366;SDS011;60030;52.274;8.040;2023-04-24T13:54:20;4.47;;;2.37;;
71366;SDS011;60030;52.274;8.040;2023-04-24T13:56:48;9.03;;;3.13;;
71366;SDS011;60030;52.274;8.040;2023-04-24T13:59:16;5.90;;;3.03;;
71366;SDS011;60030;52.274;8.040;2023-04-24T14:01:43;4.73;;;2.60;;
71366;SDS011;60030;52.274;8.040;2023-04-24T14:04:10;6.73;;;2.53;;
71366;SDS011;60030;52.274;8.040;2023-04-24T14:06:37;6.07;;;2.53;;
71366;SDS011;60030;52.274;8.040;2023-04-24T14:09:05;10.57;;;2.80;;
71366;SDS011;60030;52.274;8.040;2023-04-24T14:11:34;4.60;;;2.47;;
71366;SDS011;60030;52.274;8.040;2023-04-24T14:14:01;4.17;;;1.97;;
71366;SDS011;60030;52.274;8.040;2023-04-24T14:16:29;6.00;;;1.97;;
71366;SDS011;60030;52.274;8.040;2023-04-24T14:18:56;4.87;;;2.00;;
71366;SDS011;60030;52.274;8.040;2023-04-24T14:21:24;6.63;;;2.10;;
71366;SDS011;60030;52.274;8.040;2023-04-24T14:23:51;5.87;;;2.63;;
71366;SDS011;60030;52.274;8.040;2023-04-24T14:26:18;3.40;;;1.83;;
71366;SDS011;60030;52.274;8.040;2023-04-24T14:28:47;8.57;;;2.43;;
71366;SDS011;60030;52.274;8.040;2023-04-24T14:31:14;4.30;;;2.30;;
71366;SDS011;60030;52.274;8.040;2023-04-24T14:33:43;5.30;;;2.20;;
71366;SDS011;60030;52.274;8.040;2023-04-24T14:36:11;4.40;;;1.97;;
71366;SDS011;60030;52.274;8.040;2023-04-24T14:38:38;5.27;;;2.43;;
71366;SDS011;60030;52.274;8.040;2023-04-24T14:41:05;3.47;;;2.10;;
71366;SDS011;60030;52.274;8.040;2023-04-24T14:43:34;5.83;;;2.13;;
71366;SDS011;60030;52.274;8.040;2023-04-24T14:46:03;4.40;;;2.43;;
71366;SDS011;60030;52.274;8.040;2023-04-24T14:48:30;4.37;;;2.20;;
71366;SDS011;60030;52.274;8.040;2023-04-24T14:50:58;5.10;;;1.97;;
71366;SDS011;60030;52.274;8.040;2023-04-24T14:53:25;2.10;;;1.77;;
71366;SDS011;60030;52.274;8.040;2023-04-24T14:55:52;3.20;;;2.20;;